sensor_id;sensor_type;location;lat;lon;timestamp;P1;durP1;ratioP1;P2;durP2;ratioP2
3865;SDS011;1948;53.250;10.412;2023-02-01T00:01:22;23.00;;;3.50;;
3865;SDS011;1948;53.250;10.412;2023-02-01T00:03:49;28.50;;;4.47;;
3865;SDS011;1948;53.250;10.412;2023-02-01T00:06:16;27.17;;;4.33;;
3865;SDS011;1948;53.250;10.412;2023-02-01T00:08:54;31.87;;;4.53;;
3865;SDS011;1948;53.250;10.412;2023-02-01T00:11:23;28.77;;;4.50;;
3865;SDS011;1948;53.250;10.412;2023-02-01T00:13:51;26.80;;;3.60;;
3865;SDS011;1948;53.250;10.412;2023-02-01T00:16:20;28.33;;;4.37;;
3865;SDS011;1948;53.250;10.412;2023-02-01T00:21:39;32.33;;;4.70;;
3865;SDS011;1948;53.250;10.412;2023-02-01T00:24:09;28.00;;;4.10;;
3865;SDS011;1948;53.250;10.412;2023-02-01T00:26:43;23.20;;;4.03;;
3865;SDS011;1948;53.250;10.412;2023-02-01T00:29:20;27.17;;;3.83;;
3865;SDS011;1948;53.250;10.412;2023-02-01T00:31:49;44.57;;;5.23;;
3865;SDS011;1948;53.250;10.412;2023-02-01T00:34:18;44.87;;;5.73;;
3865;SDS011;1948;53.250;10.412;2023-02-01T00:36:46;37.93;;;4.40;;
3865;SDS011;1948;53.250;10.412;2023-02-01T00:39:14;27.33;;;3.50;;
3865;SDS011;1948;53.250;10.412;2023-02-01T00:41:45;30.17;;;5.40;;
3865;SDS011;1948;53.250;10.412;2023-02-01T00:44:12;35.00;;;5.00;;
3865;SDS011;1948;53.250;10.412;2023-02-01T00:46:39;26.50;;;4.40;;
3865;SDS011;1948;53.250;10.412;2023-02-01T00:49:06;32.73;;;4.00;;
3865;SDS011;1948;53.250;10.412;2023-02-01T00:51:35;34.10;;;4.83;;
3865;SDS011;1948;53.250;10.412;2023-02-01T00:54:03;29.43;;;4.10;;
3865;SDS011;1948;53.250;10.412;2023-02-01T00:56:31;21.73;;;4.40;;
3865;SDS011;1948;53.250;10.412;2023-02-01T00:59:00;22.93;;;4.13;;
3865;SDS011;1948;53.250;10.412;2023-02-01T01:01:28;19.80;;;3.70;;
3865;SDS011;1948;53.250;10.412;2023-02-01T01:03:57;25.00;;;4.33;;
3865;SDS011;1948;53.250;10.412;2023-02-01T01:06:26;31.43;;;4.83;;
3865;SDS011;1948;53.250;10.412;2023-02-01T01:08:56;29.57;;;4.17;;
3865;SDS011;1948;53.250;10.412;2023-02-01T01:11:27;30.67;;;4.90;;
3865;SDS011;1948;53.250;10.412;2023-02-01T01:13:59;31.57;;;4.03;;
3865;SDS011;1948;53.250;10.412;2023-02-01T01:16:31;29.20;;;4.20;;
3865;SDS011;1948;53.250;10.412;2023-02-01T01:18:59;32.43;;;4.73;;
3865;SDS011;1948;53.250;10.412;2023-02-01T01:21:29;46.87;;;5.70;;
3865;SDS011;1948;53.250;10.412;2023-02-01T01:24:02;17.10;;;4.37;;
3865;SDS011;1948;53.250;10.412;2023-02-01T01:26:29;39.67;;;5.03;;
3865;SDS011;1948;53.250;10.412;2023-02-01T01:28:57;42.73;;;5.40;;
3865;SDS011;1948;53.250;10.412;2023-02-01T01:31:25;32.07;;;5.60;;
3865;SDS011;1948;53.250;10.412;2023-02-01T01:33:54;32.00;;;5.57;;
3865;SDS011;1948;53.250;10.412;2023-02-01T01:36:24;34.47;;;4.77;;
3865;SDS011;1948;53.250;10.412;2023-02-01T01:38:55;39.57;;;5.37;;
3865;SDS011;1948;53.250;10.412;2023-02-01T01:41:28;36.53;;;4.97;;
3865;SDS011;1948;53.250;10.412;2023-02-01T01:44:01;44.13;;;5.17;;
3865;SDS011;1948;53.250;10.412;2023-02-01T01:46:32;32.83;;;4.63;;
3865;SDS011;1948;53.250;10.412;2023-02-01T01:51:44;32.60;;;4.67;;
3865;SDS011;1948;53.250;10.412;2023-02-01T01:54:51;31.07;;;4.27;;
3865;SDS011;1948;53.250;10.412;2023-02-01T01:57:21;23.40;;;4.43;;
3865;SDS011;1948;53.250;10.412;2023-02-01T02:00:11;40.27;;;5.67;;
3865;SDS011;1948;53.250;10.412;2023-02-01T02:02:46;28.97;;;5.77;;
3865;SDS011;1948;53.250;10.412;2023-02-01T02:05:25;31.93;;;5.20;;
3865;SDS011;1948;53.250;10.412;2023-02-01T02:07:55;29.93;;;5.43;;
3865;SDS011;1948;53.250;10.412;2023-02-01T02:10:27;29.43;;;4.53;;
3865;SDS011;1948;53.250;10.412;2023-02-01T02:13:13;37.07;;;4.70;;
3865;SDS011;1948;53.250;10.412;2023-02-01T02:15:49;25.33;;;4.80;;
3865;SDS011;1948;53.250;10.412;2023-02-01T02:18:52;38.93;;;4.93;;
3865;SDS011;1948;53.250;10.412;2023-02-01T02:33:41;42.27;;;5.07;;
3865;SDS011;1948;53.250;10.412;2023-02-01T02:40:06;28.93;;;5.17;;
3865;SDS011;1948;53.250;10.412;2023-02-01T02:42:46;35.13;;;4.77;;
3865;SDS011;1948;53.250;10.412;2023-02-01T02:46:24;27.37;;;4.20;;
3865;SDS011;1948;53.250;10.412;2023-02-01T02:49:20;34.53;;;5.10;;
3865;SDS011;1948;53.250;10.412;2023-02-01T02:52:39;24.70;;;3.67;;
3865;SDS011;1948;53.250;10.412;2023-02-01T02:55:34;33.23;;;4.07;;
3865;SDS011;1948;53.250;10.412;2023-02-01T02:58:04;29.43;;;4.50;;
3865;SDS011;1948;53.250;10.412;2023-02-01T03:00:54;27.50;;;4.87;;
3865;SDS011;1948;53.250;10.412;2023-02-01T03:03:44;29.93;;;4.97;;
3865;SDS011;1948;53.250;10.412;2023-02-01T03:06:36;24.93;;;4.90;;
3865;SDS011;1948;53.250;10.412;2023-02-01T03:09:06;35.40;;;5.47;;
3865;SDS011;1948;53.250;10.412;2023-02-01T03:11:41;33.00;;;4.17;;
3865;SDS011;1948;53.250;10.412;2023-02-01T03:14:32;30.20;;;5.03;;
3865;SDS011;1948;53.250;10.412;2023-02-01T03:17:08;29.80;;;4.93;;
3865;SDS011;1948;53.250;10.412;2023-02-01T03:19:43;28.07;;;5.53;;
3865;SDS011;1948;53.250;10.412;2023-02-01T03:22:26;29.07;;;5.07;;
3865;SDS011;1948;53.250;10.412;2023-02-01T03:25:10;40.03;;;5.10;;
3865;SDS011;1948;53.250;10.412;2023-02-01T03:30:29;37.43;;;4.93;;
3865;SDS011;1948;53.250;10.412;2023-02-01T03:33:14;34.07;;;4.97;;
3865;SDS011;1948;53.250;10.412;2023-02-01T03:41:50;28.77;;;4.40;;
3865;SDS011;1948;53.250;10.412;2023-02-01T03:44:40;13.60;;;3.30;;
3865;SDS011;1948;53.250;10.412;2023-02-01T03:47:21;21.43;;;3.77;;
3865;SDS011;1948;53.250;10.412;2023-02-01T03:50:02;31.23;;;4.37;;
3865;SDS011;1948;53.250;10.412;2023-02-01T03:52:50;18.47;;;4.20;;
3865;SDS011;1948;53.250;10.412;2023-02-01T03:55:23;21.00;;;5.57;;
3865;SDS011;1948;53.250;10.412;2023-02-01T03:57:55;24.47;;;3.33;;
3865;SDS011;1948;53.250;10.412;2023-02-01T04:00:30;26.70;;;3.17;;
3865;SDS011;1948;53.250;10.412;2023-02-01T04:02:57;10.80;;;2.37;;
3865;SDS011;1948;53.250;10.412;2023-02-01T04:05:27;3.40;;;1.40;;
3865;SDS011;1948;53.250;10.412;2023-02-01T04:07:54;3.97;;;1.60;;
3865;SDS011;1948;53.250;10.412;2023-02-01T04:10:21;9.17;;;1.47;;
3865;SDS011;1948;53.250;10.412;2023-02-01T04:12:51;8.10;;;1.27;;
3865;SDS011;1948;53.250;10.412;2023-02-01T04:15:18;4.03;;;1.27;;
3865;SDS011;1948;53.250;10.412;2023-02-01T04:17:48;1.17;;;0.70;;
3865;SDS011;1948;53.250;10.412;2023-02-01T04:20:20;1.97;;;1.00;;
3865;SDS011;1948;53.250;10.412;2023-02-01T04:22:47;3.33;;;0.80;;
3865;SDS011;1948;53.250;10.412;2023-02-01T04:25:17;1.13;;;0.77;;
3865;SDS011;1948;53.250;10.412;2023-02-01T04:27:44;6.10;;;1.17;;
3865;SDS011;1948;53.250;10.412;2023-02-01T04:30:12;2.27;;;1.10;;
3865;SDS011;1948;53.250;10.412;2023-02-01T04:32:40;4.40;;;0.80;;
3865;SDS011;1948;53.250;10.412;2023-02-01T04:35:07;0.90;;;0.80;;
3865;SDS011;1948;53.250;10.412;2023-02-01T04:37:35;2.97;;;0.93;;
3865;SDS011;1948;53.250;10.412;2023-02-01T04:40:02;3.10;;;1.23;;
3865;SDS011;1948;53.250;10.412;2023-02-01T04:42:33;3.20;;;1.00;;
3865;SDS011;1948;53.250;10.412;2023-02-01T04:45:04;1.90;;;1.00;;
3865;SDS011;1948;53.250;10.412;2023-02-01T04:47:32;10.30;;;1.00;;
3865;SDS011;1948;53.250;10.412;2023-02-01T04:49:59;2.90;;;1.00;;
3865;SDS011;1948;53.250;10.412;2023-02-01T04:52:27;6.63;;;1.87;;
3865;SDS011;1948;53.250;10.412;2023-02-01T04:54:56;15.03;;;1.77;;
3865;SDS011;1948;53.250;10.412;2023-02-01T04:57:25;11.70;;;1.87;;
3865;SDS011;1948;53.250;10.412;2023-02-01T04:59:52;3.37;;;1.70;;
3865;SDS011;1948;53.250;10.412;2023-02-01T05:02:21;2.20;;;1.40;;
3865;SDS011;1948;53.250;10.412;2023-02-01T05:04:51;3.17;;;1.30;;
3865;SDS011;1948;53.250;10.412;2023-02-01T05:07:22;6.53;;;0.97;;
3865;SDS011;1948;53.250;10.412;2023-02-01T05:09:49;0.93;;;0.80;;
3865;SDS011;1948;53.250;10.412;2023-02-01T05:12:16;4.30;;;1.37;;
3865;SDS011;1948;53.250;10.412;2023-02-01T05:15:02;3.60;;;1.00;;
3865;SDS011;1948;53.250;10.412;2023-02-01T05:17:30;1.70;;;1.40;;
3865;SDS011;1948;53.250;10.412;2023-02-01T05:19:57;7.80;;;1.10;;
3865;SDS011;1948;53.250;10.412;2023-02-01T05:22:24;7.00;;;1.60;;
3865;SDS011;1948;53.250;10.412;2023-02-01T05:24:51;3.47;;;1.47;;
3865;SDS011;1948;53.250;10.412;2023-02-01T05:27:18;1.90;;;1.10;;
3865;SDS011;1948;53.250;10.412;2023-02-01T05:29:45;3.63;;;1.40;;
3865;SDS011;1948;53.250;10.412;2023-02-01T05:32:14;1.70;;;1.00;;
3865;SDS011;1948;53.250;10.412;2023-02-01T05:34:48;10.13;;;1.60;;
3865;SDS011;1948;53.250;10.412;2023-02-01T05:37:15;3.40;;;1.10;;
3865;SDS011;1948;53.250;10.412;2023-02-01T05:39:43;8.97;;;4.97;;
3865;SDS011;1948;53.250;10.412;2023-02-01T05:42:12;2.57;;;1.53;;
3865;SDS011;1948;53.250;10.412;2023-02-01T05:44:39;5.63;;;1.20;;
3865;SDS011;1948;53.250;10.412;2023-02-01T05:47:08;1.27;;;1.17;;
3865;SDS011;1948;53.250;10.412;2023-02-01T05:49:36;4.00;;;0.97;;
3865;SDS011;1948;53.250;10.412;2023-02-01T05:52:03;1.10;;;1.10;;
3865;SDS011;1948;53.250;10.412;2023-02-01T05:54:30;1.20;;;1.10;;
3865;SDS011;1948;53.250;10.412;2023-02-01T05:56:57;1.10;;;1.00;;
3865;SDS011;1948;53.250;10.412;2023-02-01T05:59:25;0.90;;;0.80;;
3865;SDS011;1948;53.250;10.412;2023-02-01T06:01:51;0.97;;;0.80;;
3865;SDS011;1948;53.250;10.412;2023-02-01T06:04:21;0.97;;;0.97;;
3865;SDS011;1948;53.250;10.412;2023-02-01T06:06:51;2.30;;;1.50;;
3865;SDS011;1948;53.250;10.412;2023-02-01T06:09:18;1.10;;;0.70;;
3865;SDS011;1948;53.250;10.412;2023-02-01T06:11:45;2.10;;;1.03;;
3865;SDS011;1948;53.250;10.412;2023-02-01T06:14:14;2.33;;;1.17;;
3865;SDS011;1948;53.250;10.412;2023-02-01T06:16:45;3.73;;;1.30;;
3865;SDS011;1948;53.250;10.412;2023-02-01T06:19:13;0.73;;;0.73;;
3865;SDS011;1948;53.250;10.412;2023-02-01T06:21:40;1.47;;;0.73;;
3865;SDS011;1948;53.250;10.412;2023-02-01T06:24:07;0.60;;;0.60;;
3865;SDS011;1948;53.250;10.412;2023-02-01T06:26:37;2.20;;;0.80;;
3865;SDS011;1948;53.250;10.412;2023-02-01T06:29:09;0.60;;;0.60;;
3865;SDS011;1948;53.250;10.412;2023-02-01T06:31:36;0.83;;;0.60;;
3865;SDS011;1948;53.250;10.412;2023-02-01T06:34:06;1.23;;;1.00;;
3865;SDS011;1948;53.250;10.412;2023-02-01T06:36:33;0.60;;;0.60;;
3865;SDS011;1948;53.250;10.412;2023-02-01T06:39:00;3.37;;;0.70;;
3865;SDS011;1948;53.250;10.412;2023-02-01T06:41:30;1.53;;;0.90;;
3865;SDS011;1948;53.250;10.412;2023-02-01T06:43:57;1.03;;;0.83;;
3865;SDS011;1948;53.250;10.412;2023-02-01T06:46:24;1.00;;;1.00;;
3865;SDS011;1948;53.250;10.412;2023-02-01T06:48:53;1.43;;;0.67;;
3865;SDS011;1948;53.250;10.412;2023-02-01T06:51:21;0.80;;;0.80;;
3865;SDS011;1948;53.250;10.412;2023-02-01T06:53:55;0.50;;;0.50;;
3865;SDS011;1948;53.250;10.412;2023-02-01T06:56:22;1.37;;;0.77;;
3865;SDS011;1948;53.250;10.412;2023-02-01T06:58:49;0.70;;;0.70;;
3865;SDS011;1948;53.250;10.412;2023-02-01T07:01:17;1.90;;;0.87;;
3865;SDS011;1948;53.250;10.412;2023-02-01T07:03:48;2.67;;;1.00;;
3865;SDS011;1948;53.250;10.412;2023-02-01T07:06:17;2.60;;;1.00;;
3865;SDS011;1948;53.250;10.412;2023-02-01T07:08:47;1.43;;;1.20;;
3865;SDS011;1948;53.250;10.412;2023-02-01T07:11:14;1.70;;;0.80;;
3865;SDS011;1948;53.250;10.412;2023-02-01T07:13:44;5.50;;;1.10;;
3865;SDS011;1948;53.250;10.412;2023-02-01T07:16:15;0.97;;;0.90;;
3865;SDS011;1948;53.250;10.412;2023-02-01T07:18:44;0.80;;;0.80;;
3865;SDS011;1948;53.250;10.412;2023-02-01T07:21:12;1.43;;;0.93;;
3865;SDS011;1948;53.250;10.412;2023-02-01T07:23:39;2.30;;;0.90;;
3865;SDS011;1948;53.250;10.412;2023-02-01T07:26:12;1.07;;;0.93;;
3865;SDS011;1948;53.250;10.412;2023-02-01T07:28:43;1.07;;;0.87;;
3865;SDS011;1948;53.250;10.412;2023-02-01T07:31:13;4.20;;;1.10;;
3865;SDS011;1948;53.250;10.412;2023-02-01T07:33:45;2.20;;;1.20;;
3865;SDS011;1948;53.250;10.412;2023-02-01T07:36:15;4.00;;;1.50;;
3865;SDS011;1948;53.250;10.412;2023-02-01T07:38:43;1.67;;;1.57;;
3865;SDS011;1948;53.250;10.412;2023-02-01T07:41:10;7.10;;;1.70;;
3865;SDS011;1948;53.250;10.412;2023-02-01T07:43:37;10.80;;;1.97;;
3865;SDS011;1948;53.250;10.412;2023-02-01T07:46:07;5.20;;;1.60;;
3865;SDS011;1948;53.250;10.412;2023-02-01T07:48:37;2.10;;;1.73;;
3865;SDS011;1948;53.250;10.412;2023-02-01T07:51:05;2.20;;;1.63;;
3865;SDS011;1948;53.250;10.412;2023-02-01T07:53:36;19.07;;;3.30;;
3865;SDS011;1948;53.250;10.412;2023-02-01T07:56:08;9.40;;;2.40;;
3865;SDS011;1948;53.250;10.412;2023-02-01T07:58:46;11.53;;;1.90;;
3865;SDS011;1948;53.250;10.412;2023-02-01T08:01:22;14.50;;;2.10;;
3865;SDS011;1948;53.250;10.412;2023-02-01T08:06:26;15.73;;;2.33;;
3865;SDS011;1948;53.250;10.412;2023-02-01T08:08:59;19.17;;;2.90;;
3865;SDS011;1948;53.250;10.412;2023-02-01T08:11:27;24.73;;;4.10;;
3865;SDS011;1948;53.250;10.412;2023-02-01T08:13:57;22.47;;;3.80;;
3865;SDS011;1948;53.250;10.412;2023-02-01T08:16:24;14.73;;;2.87;;
3865;SDS011;1948;53.250;10.412;2023-02-01T08:18:52;14.40;;;4.73;;
3865;SDS011;1948;53.250;10.412;2023-02-01T08:21:24;13.00;;;3.70;;
3865;SDS011;1948;53.250;10.412;2023-02-01T08:24:03;17.30;;;3.80;;
3865;SDS011;1948;53.250;10.412;2023-02-01T08:26:34;21.50;;;3.50;;
3865;SDS011;1948;53.250;10.412;2023-02-01T08:29:02;15.47;;;3.40;;
3865;SDS011;1948;53.250;10.412;2023-02-01T08:31:31;7.30;;;2.80;;
3865;SDS011;1948;53.250;10.412;2023-02-01T08:33:59;11.20;;;2.80;;
3865;SDS011;1948;53.250;10.412;2023-02-01T08:36:30;26.47;;;3.93;;
3865;SDS011;1948;53.250;10.412;2023-02-01T08:38:57;32.77;;;3.77;;
3865;SDS011;1948;53.250;10.412;2023-02-01T08:41:26;14.57;;;2.53;;
3865;SDS011;1948;53.250;10.412;2023-02-01T08:43:56;26.17;;;3.67;;
3865;SDS011;1948;53.250;10.412;2023-02-01T08:46:23;19.03;;;3.70;;
3865;SDS011;1948;53.250;10.412;2023-02-01T08:48:53;19.70;;;3.67;;
3865;SDS011;1948;53.250;10.412;2023-02-01T08:51:20;28.70;;;3.70;;
3865;SDS011;1948;53.250;10.412;2023-02-01T08:53:48;23.33;;;4.10;;
3865;SDS011;1948;53.250;10.412;2023-02-01T08:56:18;15.40;;;3.60;;
3865;SDS011;1948;53.250;10.412;2023-02-01T08:58:46;13.53;;;3.07;;
3865;SDS011;1948;53.250;10.412;2023-02-01T09:01:15;25.63;;;5.47;;
3865;SDS011;1948;53.250;10.412;2023-02-01T09:03:46;18.57;;;4.60;;
3865;SDS011;1948;53.250;10.412;2023-02-01T09:06:13;19.83;;;3.90;;
3865;SDS011;1948;53.250;10.412;2023-02-01T09:08:43;28.90;;;4.57;;
3865;SDS011;1948;53.250;10.412;2023-02-01T09:11:12;20.30;;;4.10;;
3865;SDS011;1948;53.250;10.412;2023-02-01T09:13:42;22.97;;;4.47;;
3865;SDS011;1948;53.250;10.412;2023-02-01T09:16:09;19.30;;;3.80;;
3865;SDS011;1948;53.250;10.412;2023-02-01T09:18:36;25.63;;;4.10;;
3865;SDS011;1948;53.250;10.412;2023-02-01T09:21:26;8.23;;;2.27;;
3865;SDS011;1948;53.250;10.412;2023-02-01T09:23:54;20.20;;;4.70;;
3865;SDS011;1948;53.250;10.412;2023-02-01T09:26:23;18.87;;;3.90;;
3865;SDS011;1948;53.250;10.412;2023-02-01T09:28:58;30.17;;;5.00;;
3865;SDS011;1948;53.250;10.412;2023-02-01T09:31:28;18.63;;;4.37;;
3865;SDS011;1948;53.250;10.412;2023-02-01T09:33:56;26.93;;;4.77;;
3865;SDS011;1948;53.250;10.412;2023-02-01T09:36:23;22.43;;;5.37;;
3865;SDS011;1948;53.250;10.412;2023-02-01T09:38:55;24.90;;;5.00;;
3865;SDS011;1948;53.250;10.412;2023-02-01T09:41:32;21.33;;;3.97;;
3865;SDS011;1948;53.250;10.412;2023-02-01T09:46:44;22.93;;;4.50;;
3865;SDS011;1948;53.250;10.412;2023-02-01T09:49:18;30.57;;;5.07;;
3865;SDS011;1948;53.250;10.412;2023-02-01T09:51:52;23.90;;;4.47;;
3865;SDS011;1948;53.250;10.412;2023-02-01T09:57:25;15.57;;;3.97;;
3865;SDS011;1948;53.250;10.412;2023-02-01T10:00:10;13.93;;;3.47;;
3865;SDS011;1948;53.250;10.412;2023-02-01T10:03:11;14.50;;;4.70;;
3865;SDS011;1948;53.250;10.412;2023-02-01T10:08:19;24.50;;;4.70;;
3865;SDS011;1948;53.250;10.412;2023-02-01T10:26:01;32.67;;;4.30;;
3865;SDS011;1948;53.250;10.412;2023-02-01T10:28:35;37.80;;;3.73;;
3865;SDS011;1948;53.250;10.412;2023-02-01T10:31:04;26.17;;;4.10;;
3865;SDS011;1948;53.250;10.412;2023-02-01T10:33:58;22.37;;;4.30;;
3865;SDS011;1948;53.250;10.412;2023-02-01T10:36:54;45.67;;;5.30;;
3865;SDS011;1948;53.250;10.412;2023-02-01T10:39:28;28.77;;;4.33;;
3865;SDS011;1948;53.250;10.412;2023-02-01T10:42:00;34.23;;;5.63;;
3865;SDS011;1948;53.250;10.412;2023-02-01T10:44:27;37.77;;;5.73;;
3865;SDS011;1948;53.250;10.412;2023-02-01T10:46:59;16.30;;;4.30;;
3865;SDS011;1948;53.250;10.412;2023-02-01T10:49:29;20.43;;;4.67;;
3865;SDS011;1948;53.250;10.412;2023-02-01T10:52:14;19.37;;;4.33;;
3865;SDS011;1948;53.250;10.412;2023-02-01T10:54:49;18.93;;;4.20;;
3865;SDS011;1948;53.250;10.412;2023-02-01T10:57:23;19.40;;;4.43;;
3865;SDS011;1948;53.250;10.412;2023-02-01T10:59:54;20.20;;;3.87;;
3865;SDS011;1948;53.250;10.412;2023-02-01T11:02:26;18.43;;;4.40;;
3865;SDS011;1948;53.250;10.412;2023-02-01T11:05:12;17.43;;;3.50;;
3865;SDS011;1948;53.250;10.412;2023-02-01T11:07:49;30.37;;;3.80;;
3865;SDS011;1948;53.250;10.412;2023-02-01T11:10:40;25.63;;;4.33;;
3865;SDS011;1948;53.250;10.412;2023-02-01T11:13:15;12.07;;;3.53;;
3865;SDS011;1948;53.250;10.412;2023-02-01T11:15:44;24.33;;;4.97;;
3865;SDS011;1948;53.250;10.412;2023-02-01T11:18:17;14.90;;;3.67;;
3865;SDS011;1948;53.250;10.412;2023-02-01T11:20:46;23.20;;;4.50;;
3865;SDS011;1948;53.250;10.412;2023-02-01T11:23:24;20.00;;;3.60;;
3865;SDS011;1948;53.250;10.412;2023-02-01T11:25:55;26.33;;;4.83;;
3865;SDS011;1948;53.250;10.412;2023-02-01T11:28:27;18.57;;;5.80;;
3865;SDS011;1948;53.250;10.412;2023-02-01T11:31:03;29.13;;;5.27;;
3865;SDS011;1948;53.250;10.412;2023-02-01T11:33:35;32.67;;;4.40;;
3865;SDS011;1948;53.250;10.412;2023-02-01T11:36:08;25.83;;;4.17;;
3865;SDS011;1948;53.250;10.412;2023-02-01T11:42:05;19.40;;;3.73;;
3865;SDS011;1948;53.250;10.412;2023-02-01T11:44:44;27.60;;;4.17;;
3865;SDS011;1948;53.250;10.412;2023-02-01T11:47:31;26.17;;;5.40;;
3865;SDS011;1948;53.250;10.412;2023-02-01T11:50:17;21.77;;;4.17;;
3865;SDS011;1948;53.250;10.412;2023-02-01T12:02:33;7.30;;;2.70;;
3865;SDS011;1948;53.250;10.412;2023-02-01T12:08:09;23.60;;;3.17;;
3865;SDS011;1948;53.250;10.412;2023-02-01T12:26:55;12.93;;;3.33;;
3865;SDS011;1948;53.250;10.412;2023-02-01T12:37:54;14.10;;;5.23;;
3865;SDS011;1948;53.250;10.412;2023-02-01T12:51:58;0.73;;;0.70;;
3865;SDS011;1948;53.250;10.412;2023-02-01T12:54:36;3.53;;;1.10;;
3865;SDS011;1948;53.250;10.412;2023-02-01T12:57:12;0.67;;;0.67;;
3865;SDS011;1948;53.250;10.412;2023-02-01T12:59:57;0.83;;;0.83;;
3865;SDS011;1948;53.250;10.412;2023-02-01T13:09:06;0.70;;;0.50;;
3865;SDS011;1948;53.250;10.412;2023-02-01T13:11:49;0.60;;;0.60;;
3865;SDS011;1948;53.250;10.412;2023-02-01T13:17:18;0.60;;;0.60;;
3865;SDS011;1948;53.250;10.412;2023-02-01T13:22:30;0.50;;;0.50;;
3865;SDS011;1948;53.250;10.412;2023-02-01T13:28:07;0.60;;;0.60;;
3865;SDS011;1948;53.250;10.412;2023-02-01T13:30:59;0.57;;;0.57;;
3865;SDS011;1948;53.250;10.412;2023-02-01T13:33:49;0.50;;;0.50;;
3865;SDS011;1948;53.250;10.412;2023-02-01T13:36:36;1.10;;;0.80;;
3865;SDS011;1948;53.250;10.412;2023-02-01T13:45:03;0.50;;;0.50;;
3865;SDS011;1948;53.250;10.412;2023-02-01T13:47:43;0.70;;;0.70;;
3865;SDS011;1948;53.250;10.412;2023-02-01T13:53:05;0.60;;;0.60;;
3865;SDS011;1948;53.250;10.412;2023-02-01T13:55:44;0.70;;;0.70;;
3865;SDS011;1948;53.250;10.412;2023-02-01T14:00:49;0.70;;;0.70;;
3865;SDS011;1948;53.250;10.412;2023-02-01T14:03:20;1.87;;;0.90;;
3865;SDS011;1948;53.250;10.412;2023-02-01T14:11:41;0.70;;;0.70;;
3865;SDS011;1948;53.250;10.412;2023-02-01T14:17:28;0.70;;;0.70;;
3865;SDS011;1948;53.250;10.412;2023-02-01T14:23:15;1.17;;;1.07;;
3865;SDS011;1948;53.250;10.412;2023-02-01T14:26:01;3.23;;;1.00;;
3865;SDS011;1948;53.250;10.412;2023-02-01T14:28:35;0.90;;;0.60;;
3865;SDS011;1948;53.250;10.412;2023-02-01T14:31:15;0.87;;;0.83;;
3865;SDS011;1948;53.250;10.412;2023-02-01T14:34:02;5.20;;;0.87;;
3865;SDS011;1948;53.250;10.412;2023-02-01T14:37:02;3.00;;;0.83;;
3865;SDS011;1948;53.250;10.412;2023-02-01T14:39:34;2.37;;;0.73;;
3865;SDS011;1948;53.250;10.412;2023-02-01T14:42:39;6.13;;;1.10;;
3865;SDS011;1948;53.250;10.412;2023-02-01T15:01:21;9.57;;;0.97;;
3865;SDS011;1948;53.250;10.412;2023-02-01T15:09:16;1.63;;;1.20;;
3865;SDS011;1948;53.250;10.412;2023-02-01T15:11:56;4.50;;;0.90;;
3865;SDS011;1948;53.250;10.412;2023-02-01T15:14:45;2.20;;;0.97;;
3865;SDS011;1948;53.250;10.412;2023-02-01T15:17:19;8.00;;;0.97;;
3865;SDS011;1948;53.250;10.412;2023-02-01T15:20:11;2.00;;;0.60;;
3865;SDS011;1948;53.250;10.412;2023-02-01T15:22:53;2.90;;;0.70;;
3865;SDS011;1948;53.250;10.412;2023-02-01T15:27:54;2.87;;;1.17;;
3865;SDS011;1948;53.250;10.412;2023-02-01T15:30:25;2.53;;;1.20;;
3865;SDS011;1948;53.250;10.412;2023-02-01T15:33:07;1.43;;;1.00;;
3865;SDS011;1948;53.250;10.412;2023-02-01T15:35:42;3.70;;;0.87;;
3865;SDS011;1948;53.250;10.412;2023-02-01T15:38:21;1.37;;;0.80;;
3865;SDS011;1948;53.250;10.412;2023-02-01T15:43:24;1.43;;;1.30;;
3865;SDS011;1948;53.250;10.412;2023-02-01T15:45:58;12.40;;;1.33;;
3865;SDS011;1948;53.250;10.412;2023-02-01T15:48:39;6.70;;;1.90;;
3865;SDS011;1948;53.250;10.412;2023-02-01T15:51:20;3.73;;;1.63;;
3865;SDS011;1948;53.250;10.412;2023-02-01T15:53:51;2.30;;;1.30;;
3865;SDS011;1948;53.250;10.412;2023-02-01T15:56:34;6.47;;;1.37;;
3865;SDS011;1948;53.250;10.412;2023-02-01T15:59:13;6.17;;;1.70;;
3865;SDS011;1948;53.250;10.412;2023-02-01T16:01:44;6.60;;;1.97;;
3865;SDS011;1948;53.250;10.412;2023-02-01T16:06:55;6.60;;;1.83;;
3865;SDS011;1948;53.250;10.412;2023-02-01T16:09:46;13.13;;;2.00;;
3865;SDS011;1948;53.250;10.412;2023-02-01T16:15:02;16.30;;;2.47;;
3865;SDS011;1948;53.250;10.412;2023-02-01T16:17:31;13.90;;;2.30;;
3865;SDS011;1948;53.250;10.412;2023-02-01T16:19:58;21.97;;;3.47;;
3865;SDS011;1948;53.250;10.412;2023-02-01T16:22:25;7.10;;;3.10;;
3865;SDS011;1948;53.250;10.412;2023-02-01T16:24:54;9.00;;;3.67;;
3865;SDS011;1948;53.250;10.412;2023-02-01T16:27:23;16.10;;;4.13;;
3865;SDS011;1948;53.250;10.412;2023-02-01T16:29:51;9.47;;;3.20;;
3865;SDS011;1948;53.250;10.412;2023-02-01T16:32:23;20.50;;;3.93;;
3865;SDS011;1948;53.250;10.412;2023-02-01T16:34:50;21.43;;;5.47;;
3865;SDS011;1948;53.250;10.412;2023-02-01T16:37:21;8.40;;;3.77;;
3865;SDS011;1948;53.250;10.412;2023-02-01T16:39:55;14.10;;;3.40;;
3865;SDS011;1948;53.250;10.412;2023-02-01T16:42:24;11.20;;;3.43;;
3865;SDS011;1948;53.250;10.412;2023-02-01T16:44:51;20.47;;;3.20;;
3865;SDS011;1948;53.250;10.412;2023-02-01T16:47:21;13.53;;;3.20;;
3865;SDS011;1948;53.250;10.412;2023-02-01T16:49:49;9.57;;;3.10;;
3865;SDS011;1948;53.250;10.412;2023-02-01T16:52:18;14.33;;;3.47;;
3865;SDS011;1948;53.250;10.412;2023-02-01T16:54:48;13.67;;;3.13;;
3865;SDS011;1948;53.250;10.412;2023-02-01T16:57:16;11.27;;;2.57;;
3865;SDS011;1948;53.250;10.412;2023-02-01T16:59:45;19.40;;;4.10;;
3865;SDS011;1948;53.250;10.412;2023-02-01T17:02:17;13.87;;;3.70;;
3865;SDS011;1948;53.250;10.412;2023-02-01T17:04:46;16.83;;;4.43;;
3865;SDS011;1948;53.250;10.412;2023-02-01T17:07:18;18.27;;;3.70;;
3865;SDS011;1948;53.250;10.412;2023-02-01T17:09:45;21.03;;;3.53;;
3865;SDS011;1948;53.250;10.412;2023-02-01T17:12:34;19.20;;;4.20;;
3865;SDS011;1948;53.250;10.412;2023-02-01T17:15:02;23.43;;;3.50;;
3865;SDS011;1948;53.250;10.412;2023-02-01T17:17:32;26.30;;;4.47;;
3865;SDS011;1948;53.250;10.412;2023-02-01T17:20:05;26.33;;;3.83;;
3865;SDS011;1948;53.250;10.412;2023-02-01T17:22:44;26.60;;;3.73;;
3865;SDS011;1948;53.250;10.412;2023-02-01T17:25:16;16.63;;;4.20;;
3865;SDS011;1948;53.250;10.412;2023-02-01T17:27:45;26.63;;;4.10;;
3865;SDS011;1948;53.250;10.412;2023-02-01T17:30:13;18.13;;;3.43;;
3865;SDS011;1948;53.250;10.412;2023-02-01T17:32:41;17.03;;;3.40;;
3865;SDS011;1948;53.250;10.412;2023-02-01T17:35:19;27.30;;;4.70;;
3865;SDS011;1948;53.250;10.412;2023-02-01T17:37:50;37.37;;;4.80;;
3865;SDS011;1948;53.250;10.412;2023-02-01T17:40:18;21.30;;;3.57;;
3865;SDS011;1948;53.250;10.412;2023-02-01T17:42:49;19.70;;;3.77;;
3865;SDS011;1948;53.250;10.412;2023-02-01T17:45:37;38.80;;;4.03;;
3865;SDS011;1948;53.250;10.412;2023-02-01T17:48:17;23.90;;;4.60;;
3865;SDS011;1948;53.250;10.412;2023-02-01T17:50:49;27.40;;;4.70;;
3865;SDS011;1948;53.250;10.412;2023-02-01T17:53:24;38.97;;;5.07;;
3865;SDS011;1948;53.250;10.412;2023-02-01T17:55:53;34.00;;;4.20;;
3865;SDS011;1948;53.250;10.412;2023-02-01T17:58:23;20.80;;;3.30;;
3865;SDS011;1948;53.250;10.412;2023-02-01T18:00:51;27.20;;;3.80;;
3865;SDS011;1948;53.250;10.412;2023-02-01T18:05:51;24.30;;;3.80;;
3865;SDS011;1948;53.250;10.412;2023-02-01T18:08:23;19.43;;;3.37;;
3865;SDS011;1948;53.250;10.412;2023-02-01T18:10:56;28.37;;;5.40;;
3865;SDS011;1948;53.250;10.412;2023-02-01T18:13:28;24.40;;;4.23;;
3865;SDS011;1948;53.250;10.412;2023-02-01T18:15:58;23.97;;;4.23;;
3865;SDS011;1948;53.250;10.412;2023-02-01T18:18:25;14.20;;;3.23;;
3865;SDS011;1948;53.250;10.412;2023-02-01T18:20:54;28.27;;;3.90;;
3865;SDS011;1948;53.250;10.412;2023-02-01T18:23:23;17.03;;;3.80;;
3865;SDS011;1948;53.250;10.412;2023-02-01T18:25:52;29.90;;;4.30;;
3865;SDS011;1948;53.250;10.412;2023-02-01T18:28:31;19.67;;;4.10;;
3865;SDS011;1948;53.250;10.412;2023-02-01T18:30:58;25.10;;;4.97;;